Time;durP1;ratioP1;P1;durP2;ratioP2;P2;SDS_P1;SDS_P2;PMS_P1;PMS_P2;Temp;Humidity;BMP_temperature;BMP_pressure;BME280_temperature;BME280_humidity;BME280_pressure;Samples;Min_cycle;Max_cycle;Signal;HPM_P1;HPM_P2
2021/07/10 00:00:37;;;;;;;6.55;3.40;;;;;;;30.06;40.96;101286.66;144992;586;6002;-84
2021/07/10 00:03:05;;;;;;;4.82;3.97;;;;;;;30.12;41.03;101292.62;144992;572;6002;-84
2021/07/10 00:05:33;;;;;;;5.65;3.42;;;;;;;30.13;40.58;101280.97;144992;589;6002;-83
2021/07/10 00:08:03;;;;;;;3.55;3.25;;;;;;;30.11;40.50;101282.84;144992;596;6002;-83
2021/07/10 00:10:34;;;;;;;7.53;3.72;;;;;;;30.13;40.65;101288.13;144992;588;6002;-83
2021/07/10 00:13:03;;;;;;;7.95;3.80;;;;;;;30.15;40.54;101287.13;144992;602;6002;-81
2021/07/10 00:15:31;;;;;;;6.62;3.72;;;;;;;30.17;40.06;101281.72;144992;618;6002;-82
2021/07/10 00:17:59;;;;;;;7.55;3.90;;;;;;;30.17;40.09;101279.91;144992;621;6002;-83
2021/07/10 00:20:27;;;;;;;4.85;3.78;;;;;;;30.19;39.83;101282.50;144992;622;6002;-83
2021/07/10 00:23:00;;;;;;;5.00;3.60;;;;;;;30.22;39.78;101285.06;144992;615;6002;-85
2021/07/10 00:25:29;;;;;;;7.35;3.62;;;;;;;30.21;40.34;101294.03;144992;618;6002;-84
2021/07/10 00:27:56;;;;;;;9.35;3.78;;;;;;;30.10;40.09;101302.53;144992;593;6002;-82
2021/07/10 00:30:24;;;;;;;6.15;3.85;;;;;;;30.07;40.43;101297.31;144992;572;6002;-87
2021/07/10 00:32:51;;;;;;;5.07;3.80;;;;;;;29.89;40.69;101312.34;144992;569;6002;-82
2021/07/10 00:35:17;;;;;;;4.07;3.30;;;;;;;29.73;40.41;101305.84;144992;597;6002;-82
2021/07/10 00:37:45;;;;;;;4.72;3.53;;;;;;;29.54;40.48;101301.25;144992;582;6002;-84
2021/07/10 00:40:12;;;;;;;4.95;3.50;;;;;;;29.51;41.02;101308.53;144992;572;6002;-82
2021/07/10 00:42:42;;;;;;;3.78;3.10;;;;;;;29.42;41.02;101313.31;144992;606;6002;-82
2021/07/10 00:45:11;;;;;;;4.03;3.03;;;;;;;29.42;41.07;101315.97;144992;605;6002;-82
2021/07/10 00:47:38;;;;;;;4.47;3.25;;;;;;;29.38;41.08;101310.81;144992;569;6002;-81
2021/07/10 00:50:24;;;;;;;5.82;3.47;;;;;;;29.33;40.94;101312.81;144992;586;6002;-82
2021/07/10 00:52:51;;;;;;;7.05;3.47;;;;;;;29.23;41.00;101315.84;144992;589;6002;-81
2021/07/10 00:55:21;;;;;;;3.92;3.50;;;;;;;29.21;41.17;101306.16;144992;578;6002;-83
2021/07/10 00:57:47;;;;;;;4.25;3.30;;;;;;;29.24;40.94;101309.56;144992;590;6002;-82
2021/07/10 01:00:19;;;;;;;3.40;3.10;;;;;;;29.28;40.79;101304.97;144992;581;6002;-82
2021/07/10 01:02:49;;;;;;;4.65;3.35;;;;;;;29.25;40.61;101302.41;144992;585;6002;-82
2021/07/10 01:05:21;;;;;;;5.28;3.53;;;;;;;29.26;40.59;101309.50;144992;566;6002;-83
2021/07/10 01:07:47;;;;;;;6.20;3.40;;;;;;;29.23;40.52;101299.78;144992;657;6002;-81
2021/07/10 01:10:15;;;;;;;4.10;3.40;;;;;;;29.22;40.15;101292.69;144992;593;6002;-82
2021/07/10 01:12:44;;;;;;;4.50;3.10;;;;;;;29.22;40.47;101295.38;144992;657;6002;-82
2021/07/10 01:15:15;;;;;;;7.07;3.78;;;;;;;29.06;40.07;101294.19;144992;572;6002;-82
2021/07/10 01:17:44;;;;;;;5.93;3.55;;;;;;;28.97;40.82;101281.19;144992;591;6002;-82
2021/07/10 01:20:15;;;;;;;3.75;3.35;;;;;;;28.92;40.82;101278.69;144991;653;6002;-82
2021/07/10 01:22:42;;;;;;;6.50;3.37;;;;;;;28.97;40.99;101274.06;144992;601;6002;-82
2021/07/10 01:25:12;;;;;;;4.40;3.33;;;;;;;28.90;40.52;101264.53;144992;579;6002;-82
2021/07/10 01:27:39;;;;;;;5.93;3.55;;;;;;;28.95;40.79;101262.53;144992;715;6002;-81
2021/07/10 01:30:09;;;;;;;3.87;3.45;;;;;;;29.01;40.82;101261.44;144992;570;6002;-82
2021/07/10 01:32:37;;;;;;;4.87;3.20;;;;;;;29.05;40.67;101261.28;144992;623;6002;-83
2021/07/10 01:35:05;;;;;;;5.65;3.12;;;;;;;29.09;40.98;101249.50;144992;566;6002;-82
2021/07/10 01:37:31;;;;;;;5.87;3.50;;;;;;;29.07;40.66;101251.38;144992;564;6002;-82
2021/07/10 01:39:58;;;;;;;4.40;4.00;;;;;;;29.10;40.73;101256.59;144992;570;6002;-82
2021/07/10 01:42:25;;;;;;;9.57;3.50;;;;;;;29.13;40.85;101258.31;144992;589;6002;-82
2021/07/10 01:44:51;;;;;;;4.65;3.25;;;;;;;29.13;40.58;101248.47;144992;630;6002;-82
2021/07/10 01:47:18;;;;;;;6.03;3.87;;;;;;;29.14;40.77;101252.00;144992;655;6002;-83
2021/07/10 01:49:45;;;;;;;6.75;3.92;;;;;;;29.13;40.36;101255.62;144992;609;6002;-83
2021/07/10 01:52:12;;;;;;;5.53;3.92;;;;;;;29.01;40.04;101251.63;144992;576;6002;-83
2021/07/10 01:54:38;;;;;;;6.55;3.60;;;;;;;28.88;40.37;101243.22;144992;570;6002;-83
2021/07/10 01:57:10;;;;;;;4.78;4.10;;;;;;;28.82;41.06;101246.13;144992;602;6002;-83
2021/07/10 01:59:38;;;;;;;7.32;3.85;;;;;;;28.72;41.30;101244.75;144992;569;6002;-82
2021/07/10 02:02:05;;;;;;;8.90;4.03;;;;;;;28.71;41.25;101249.19;144992;575;6002;-80
2021/07/10 02:04:43;;;;;;;6.62;3.95;;;;;;;28.76;41.16;101255.25;144992;644;6002;-84
2021/07/10 02:07:10;;;;;;;8.18;4.05;;;;;;;28.71;40.69;101253.66;144992;673;6002;-82
2021/07/10 02:09:39;;;;;;;6.43;4.70;;;;;;;28.60;40.84;101248.72;144992;618;6002;-82
2021/07/10 02:12:06;;;;;;;8.73;4.55;;;;;;;28.56;41.17;101247.09;144992;566;6002;-81
2021/07/10 02:14:33;;;;;;;17.50;4.78;;;;;;;28.41;40.79;101251.16;144992;603;6002;-82
2021/07/10 02:16:59;;;;;;;10.30;4.72;;;;;;;28.41;41.68;101251.16;144992;654;6002;-82
2021/07/10 02:19:26;;;;;;;11.55;4.87;;;;;;;28.50;41.55;101249.97;144992;623;6011;-81
2021/07/10 02:21:53;;;;;;;8.57;4.57;;;;;;;28.52;41.60;101251.66;144992;593;6002;-82
2021/07/10 02:24:20;;;;;;;7.07;4.40;;;;;;;28.60;41.58;101243.37;144991;727;6002;-83
2021/07/10 02:26:47;;;;;;;10.15;4.53;;;;;;;28.63;41.36;101247.75;144992;564;6002;-82
2021/07/10 02:29:13;;;;;;;7.62;4.03;;;;;;;28.70;41.18;101251.94;144992;593;6002;-83
2021/07/10 02:31:43;;;;;;;8.32;4.62;;;;;;;28.78;41.36;101249.84;144992;594;6002;-81
2021/07/10 02:34:09;;;;;;;6.15;4.32;;;;;;;28.87;41.18;101243.28;144992;573;6002;-87
2021/07/10 02:36:37;;;;;;;6.93;3.80;;;;;;;28.96;40.99;101245.59;144991;584;6002;-84
2021/07/10 02:39:05;;;;;;;6.12;4.07;;;;;;;29.03;40.83;101240.87;144992;588;6002;-82
2021/07/10 02:41:32;;;;;;;4.65;3.80;;;;;;;29.12;40.81;101243.19;144992;580;6003;-82
2021/07/10 02:44:00;;;;;;;5.20;3.60;;;;;;;29.16;40.67;101250.16;144992;637;6002;-81
2021/07/10 02:46:26;;;;;;;6.80;3.70;;;;;;;29.15;40.67;101239.53;144991;577;6002;-81
2021/07/10 02:48:53;;;;;;;5.18;3.28;;;;;;;29.14;40.77;101252.00;144992;574;6003;-81
2021/07/10 02:51:21;;;;;;;5.53;3.85;;;;;;;29.11;40.75;101244.09;144992;569;6002;-81
2021/07/10 02:53:47;;;;;;;4.40;3.42;;;;;;;29.02;40.80;101241.81;144992;574;6002;-84
2021/07/10 02:56:14;;;;;;;4.68;3.47;;;;;;;29.01;40.92;101248.09;144992;570;6002;-83
2021/07/10 02:58:41;;;;;;;4.95;3.53;;;;;;;29.04;40.92;101250.63;144992;675;6002;-83
2021/07/10 03:01:07;;;;;;;9.07;3.72;;;;;;;29.04;40.89;101254.16;144992;580;6002;-82
2021/07/10 03:03:34;;;;;;;8.77;3.50;;;;;;;29.00;40.83;101249.00;144992;672;6002;-82
2021/07/10 03:06:01;;;;;;;4.87;3.65;;;;;;;28.98;40.86;101256.22;144992;626;6002;-83
2021/07/10 03:08:27;;;;;;;7.20;3.80;;;;;;;28.99;40.88;101245.47;144992;569;6002;-81
2021/07/10 03:10:54;;;;;;;8.20;3.80;;;;;;;29.01;41.02;101248.09;144993;650;6002;-82
2021/07/10 03:13:21;;;;;;;6.55;3.62;;;;;;;29.02;40.77;101253.38;144993;587;6002;-82
2021/07/10 03:15:47;;;;;;;6.53;3.80;;;;;;;29.03;40.94;101246.22;144993;615;6002;-82
2021/07/10 03:18:14;;;;;;;6.65;3.80;;;;;;;29.06;40.99;101251.44;144993;569;6002;-82
2021/07/10 03:20:40;;;;;;;18.10;3.78;;;;;;;29.04;41.01;101245.28;144993;564;6002;-80
2021/07/10 03:23:07;;;;;;;7.53;3.75;;;;;;;29.01;41.02;101245.41;144993;604;6002;-82
2021/07/10 03:25:34;;;;;;;6.68;3.75;;;;;;;28.95;41.23;101246.50;144993;733;6002;-82
2021/07/10 03:28:01;;;;;;;8.77;3.87;;;;;;;28.94;41.17;101248.31;144993;579;6002;-83
2021/07/10 03:30:28;;;;;;;6.12;3.90;;;;;;;28.94;41.33;101252.81;144993;650;6002;-80
2021/07/10 03:32:55;;;;;;;9.85;4.05;;;;;;;28.78;41.52;101249.84;144993;571;6002;-81
2021/07/10 03:35:22;;;;;;;6.28;4.12;;;;;;;28.73;41.55;101251.78;144993;580;6002;-82
2021/07/10 03:37:50;;;;;;;6.22;3.90;;;;;;;28.67;41.72;101249.38;144993;577;6002;-84
2021/07/10 03:40:28;;;;;;;7.80;4.20;;;;;;;28.68;41.88;101251.09;144992;717;6003;-82
2021/07/10 03:42:55;;;;;;;13.32;4.70;;;;;;;28.69;41.65;101245.72;144992;609;6002;-83
2021/07/10 03:45:22;;;;;;;11.60;4.85;;;;;;;28.66;41.64;101243.16;144992;685;6002;-82
2021/07/10 03:47:49;;;;;;;8.23;4.30;;;;;;;28.62;41.85;101254.91;144992;589;6003;-82
2021/07/10 03:50:16;;;;;;;7.68;4.45;;;;;;;28.66;41.82;101245.81;144992;569;6002;-82
2021/07/10 03:52:43;;;;;;;7.55;4.50;;;;;;;28.65;41.68;101249.44;144992;570;6002;-82
2021/07/10 03:55:11;;;;;;;12.32;4.80;;;;;;;28.51;41.92;101243.72;144993;590;6002;-83
2021/07/10 03:57:38;;;;;;;8.82;4.43;;;;;;;28.53;41.78;101250.72;144993;632;6002;-81
2021/07/10 04:00:08;;;;;;;7.53;4.55;;;;;;;28.53;41.86;101241.84;144993;596;6002;-82
2021/07/10 04:02:35;;;;;;;6.43;3.97;;;;;;;28.57;41.79;101246.13;144993;596;6002;-82
2021/07/10 04:05:02;;;;;;;8.90;4.20;;;;;;;28.62;41.81;101238.88;144993;593;6002;-81
2021/07/10 04:07:32;;;;;;;7.68;3.80;;;;;;;28.65;42.28;101237.88;144993;569;6002;-81
2021/07/10 04:10:03;;;;;;;5.95;4.00;;;;;;;28.71;41.90;101235.81;144993;569;6002;-82
2021/07/10 04:12:30;;;;;;;8.30;3.65;;;;;;;28.75;41.69;101234.78;144993;577;6002;-81
2021/07/10 04:15:00;;;;;;;6.18;4.12;;;;;;;28.73;41.89;101238.44;144992;664;6002;-82
2021/07/10 04:17:31;;;;;;;11.15;4.28;;;;;;;28.77;41.92;101240.94;144993;579;6002;-82
2021/07/10 04:19:58;;;;;;;7.22;3.97;;;;;;;28.85;41.76;101235.31;144993;564;6002;-82
2021/07/10 04:22:24;;;;;;;5.00;3.78;;;;;;;28.89;41.69;101226.25;144993;570;6002;-83
2021/07/10 04:24:52;;;;;;;5.75;3.67;;;;;;;28.92;41.54;101226.13;144993;571;6002;-82
2021/07/10 04:27:19;;;;;;;5.70;3.80;;;;;;;28.95;41.77;101235.81;144993;600;6002;-81
2021/07/10 04:29:48;;;;;;;5.10;3.60;;;;;;;29.00;41.84;101228.53;144993;580;6002;-82
2021/07/10 04:32:17;;;;;;;4.50;3.55;;;;;;;29.03;41.73;101228.41;144993;592;6002;-82
2021/07/10 04:34:44;;;;;;;7.03;3.65;;;;;;;29.08;41.79;101228.19;144993;585;6002;-82
2021/07/10 04:37:10;;;;;;;5.78;3.80;;;;;;;29.12;41.79;101237.84;144993;581;6002;-82
2021/07/10 04:39:37;;;;;;;8.50;4.20;;;;;;;29.15;41.80;101232.38;144993;595;6002;-82
2021/07/10 04:42:04;;;;;;;11.23;4.37;;;;;;;29.21;41.80;101237.50;144993;610;6002;-82
2021/07/10 04:44:31;;;;;;;9.05;4.20;;;;;;;29.24;41.65;101232.03;144993;625;6002;-82
2021/07/10 04:46:58;;;;;;;6.90;3.83;;;;;;;29.29;41.72;101232.72;144993;657;6002;-81
2021/07/10 04:49:25;;;;;;;11.40;4.87;;;;;;;29.34;41.73;101229.84;144994;583;5002;-82
2021/07/10 04:51:51;;;;;;;5.72;4.07;;;;;;;29.40;41.81;101231.41;144994;569;5002;-81
2021/07/10 04:54:18;;;;;;;8.07;4.28;;;;;;;29.45;41.70;101229.44;144994;568;5002;-82
2021/07/10 04:56:44;;;;;;;8.88;3.72;;;;;;;29.51;41.68;101233.63;144994;591;5002;-82
2021/07/10 04:59:11;;;;;;;6.93;3.83;;;;;;;29.54;41.81;101229.06;144994;592;5002;-81
2021/07/10 05:01:37;;;;;;;6.55;4.10;;;;;;;29.58;41.70;101222.63;144994;569;5002;-83
2021/07/10 05:04:04;;;;;;;6.50;3.95;;;;;;;29.63;41.45;101225.09;144994;566;5002;-83
2021/07/10 05:06:31;;;;;;;5.87;3.53;;;;;;;29.66;41.39;101233.87;144994;569;5002;-82
2021/07/10 05:08:57;;;;;;;5.87;3.83;;;;;;;29.72;41.39;101242.59;144994;565;5002;-81
2021/07/10 05:11:24;;;;;;;6.43;3.72;;;;;;;29.75;41.65;101242.44;144994;569;5002;-81
2021/07/10 05:13:50;;;;;;;5.47;3.50;;;;;;;29.79;41.37;101244.09;144994;630;5002;-81
2021/07/10 05:16:17;;;;;;;7.78;3.87;;;;;;;29.81;41.62;101247.56;144994;574;5002;-81
2021/07/10 05:18:43;;;;;;;5.18;3.67;;;;;;;29.84;41.55;101248.31;144994;669;5002;-82
2021/07/10 05:21:10;;;;;;;7.72;3.90;;;;;;;29.88;41.18;101243.69;144994;647;5002;-82
2021/07/10 05:23:36;;;;;;;7.03;3.80;;;;;;;29.93;41.52;101240.81;144994;582;5002;-83
2021/07/10 05:26:02;;;;;;;12.68;3.90;;;;;;;29.95;41.12;101250.50;144994;613;5002;-83
2021/07/10 05:28:29;;;;;;;7.80;4.10;;;;;;;29.99;41.25;101252.12;144994;618;5002;-82
2021/07/10 05:30:55;;;;;;;5.72;4.05;;;;;;;30.00;41.09;101253.87;144994;675;5002;-82
2021/07/10 05:33:22;;;;;;;10.43;3.87;;;;;;;30.00;41.39;101248.53;144994;572;5002;-81
2021/07/10 05:35:48;;;;;;;7.70;4.03;;;;;;;30.05;41.26;101252.78;144993;569;5002;-81
2021/07/10 05:38:17;;;;;;;8.63;4.30;;;;;;;30.09;41.54;101246.38;144994;585;5002;-82
2021/07/10 05:40:44;;;;;;;6.93;4.60;;;;;;;30.14;41.46;101249.72;144994;584;5002;-82
2021/07/10 05:43:11;;;;;;;6.35;4.32;;;;;;;30.20;41.17;101254.81;144994;613;5002;-83
2021/07/10 05:45:38;;;;;;;9.27;5.03;;;;;;;30.25;41.57;101251.94;144993;598;5002;-81
2021/07/10 05:48:06;;;;;;;9.13;5.75;;;;;;;30.31;41.50;101252.53;144994;564;5002;-81
2021/07/10 05:50:34;;;;;;;6.95;4.70;;;;;;;30.37;41.04;101251.38;144994;569;5002;-81
2021/07/10 05:53:00;;;;;;;10.77;4.80;;;;;;;30.34;41.09;101244.34;144994;587;5002;-80
2021/07/10 05:55:28;;;;;;;7.75;4.70;;;;;;;30.37;41.16;101241.53;144994;609;5002;-82
2021/07/10 05:57:54;;;;;;;8.10;4.82;;;;;;;30.45;41.63;101240.34;144994;592;5002;-81
2021/07/10 06:00:21;;;;;;;9.43;4.93;;;;;;;30.54;41.81;101245.28;144994;569;5002;-84
2021/07/10 06:02:48;;;;;;;8.13;4.75;;;;;;;30.64;41.19;101248.41;144994;591;5002;-82
2021/07/10 06:05:14;;;;;;;9.68;5.00;;;;;;;30.68;41.64;101245.50;144994;626;5002;-83
2021/07/10 06:07:41;;;;;;;8.82;3.80;;;;;;;30.69;40.74;101246.41;144994;616;5002;-81
2021/07/10 06:10:12;;;;;;;12.85;4.80;;;;;;;30.56;40.90;101248.78;144994;590;5002;-82
2021/07/10 06:12:39;;;;;;;8.88;4.53;;;;;;;30.59;40.70;101243.25;144994;589;5002;-81
2021/07/10 06:15:08;;;;;;;9.68;4.00;;;;;;;30.46;41.51;101242.94;144994;575;5002;-82
2021/07/10 06:17:35;;;;;;;7.15;3.62;;;;;;;30.38;41.23;101242.44;144994;576;5002;-81
2021/07/10 06:20:04;;;;;;;6.60;3.42;;;;;;;30.33;41.03;101247.09;144994;574;5002;-79
2021/07/10 06:22:31;;;;;;;5.53;3.30;;;;;;;30.23;41.09;101252.00;144994;605;5002;-81
2021/07/10 06:24:57;;;;;;;5.05;3.33;;;;;;;30.24;40.74;101244.81;144994;583;5002;-81
2021/07/10 06:27:24;;;;;;;5.25;3.22;;;;;;;30.12;41.26;101247.09;144994;597;5002;-83
2021/07/10 06:29:51;;;;;;;5.78;3.75;;;;;;;30.09;41.39;101244.56;144994;622;5002;-83
2021/07/10 06:32:17;;;;;;;7.53;3.75;;;;;;;30.09;41.33;101244.56;144994;625;5002;-82
2021/07/10 06:34:44;;;;;;;5.60;3.30;;;;;;;30.07;41.02;101245.56;144994;589;5002;-82
2021/07/10 06:37:10;;;;;;;6.35;3.65;;;;;;;30.07;41.52;101242.88;144994;617;5002;-82
2021/07/10 06:39:36;;;;;;;4.45;3.60;;;;;;;30.01;41.08;101242.22;144994;594;5002;-80
2021/07/10 06:42:04;;;;;;;6.65;3.60;;;;;;;29.97;41.97;101248.66;144994;564;5002;-82
2021/07/10 06:44:30;;;;;;;9.80;4.00;;;;;;;30.07;41.56;101246.44;144994;576;5002;-81
2021/07/10 06:46:57;;;;;;;6.65;4.10;;;;;;;30.13;41.97;101242.63;144994;591;5003;-83
2021/07/10 06:49:24;;;;;;;9.65;4.40;;;;;;;30.06;42.60;101246.50;144994;573;5002;-83
2021/07/10 06:51:50;;;;;;;10.25;4.43;;;;;;;30.06;42.64;101242.03;144994;608;5002;-81
2021/07/10 06:54:18;;;;;;;8.27;3.95;;;;;;;29.96;43.89;101241.56;144994;605;5003;-82
2021/07/10 06:56:44;;;;;;;8.93;4.03;;;;;;;29.91;43.62;101248.91;144994;577;5002;-82
2021/07/10 06:59:11;;;;;;;9.88;3.58;;;;;;;29.96;43.61;101244.22;144994;631;5002;-83
2021/07/10 07:01:38;;;;;;;7.57;3.75;;;;;;;29.91;43.99;101248.91;144994;592;5002;-81
2021/07/10 07:04:06;;;;;;;5.03;3.60;;;;;;;29.81;44.32;101256.47;144994;621;5002;-83
2021/07/10 07:06:32;;;;;;;8.20;3.97;;;;;;;29.76;45.76;101249.53;144994;578;5002;-82
2021/07/10 07:08:59;;;;;;;7.45;4.10;;;;;;;29.78;46.12;101245.88;144994;591;5002;-81
2021/07/10 07:11:26;;;;;;;7.07;3.80;;;;;;;29.78;46.48;101239.63;144994;607;5002;-82
2021/07/10 07:13:56;;;;;;;5.68;3.80;;;;;;;29.76;46.39;101247.72;144994;579;5002;-82
2021/07/10 07:16:22;;;;;;;6.45;3.75;;;;;;;29.75;46.67;101237.06;144994;572;5002;-83
2021/07/10 07:18:49;;;;;;;8.77;4.25;;;;;;;29.73;47.07;101239.81;144994;607;5002;-82
2021/07/10 07:21:16;;;;;;;7.80;4.25;;;;;;;29.77;46.82;101233.41;144994;587;5002;-82
2021/07/10 07:23:43;;;;;;;5.72;3.45;;;;;;;29.73;47.34;101234.47;144994;658;5002;-82
2021/07/10 07:26:10;;;;;;;6.85;4.10;;;;;;;29.80;47.32;101241.34;144994;596;5002;-82
2021/07/10 07:28:39;;;;;;;8.55;4.28;;;;;;;29.76;47.72;101233.47;144994;573;5002;-82
2021/07/10 07:31:06;;;;;;;7.30;3.83;;;;;;;29.56;48.46;101235.19;144994;571;5002;-82
2021/07/10 07:33:32;;;;;;;9.38;4.15;;;;;;;29.76;48.00;101226.31;144994;575;5002;-81
2021/07/10 07:35:59;;;;;;;8.00;4.20;;;;;;;29.66;48.28;101222.31;144994;616;5002;-82
2021/07/10 07:38:25;;;;;;;6.82;3.83;;;;;;;29.69;47.54;101215.97;144994;598;5002;-82
2021/07/10 07:40:55;;;;;;;9.43;3.92;;;;;;;29.59;47.92;101219.03;144994;569;5002;-80
2021/07/10 07:43:21;;;;;;;7.80;3.90;;;;;;;29.60;47.73;101222.56;144994;615;5002;-81
2021/07/10 07:45:48;;;;;;;7.10;3.67;;;;;;;29.55;47.56;101224.56;144994;644;5002;-81
2021/07/10 07:48:14;;;;;;;8.70;3.70;;;;;;;29.47;47.73;101222.19;144994;588;5002;-82
2021/07/10 07:50:41;;;;;;;6.78;3.95;;;;;;;29.50;48.44;101224.75;144994;676;5002;-81
2021/07/10 07:53:07;;;;;;;6.97;3.83;;;;;;;29.56;47.46;101220.94;144994;573;5002;-82
2021/07/10 07:55:36;;;;;;;8.25;3.85;;;;;;;29.47;47.78;101222.19;144994;637;5002;-81
2021/07/10 07:58:04;;;;;;;9.55;3.58;;;;;;;29.48;47.58;101229.31;144994;594;5002;-82
2021/07/10 08:00:31;;;;;;;5.72;3.72;;;;;;;29.66;47.21;101223.16;144993;635;5002;-82
2021/07/10 08:02:57;;;;;;;6.93;3.80;;;;;;;29.55;48.35;101221.88;144994;597;5002;-81
2021/07/10 08:05:24;;;;;;;7.30;3.78;;;;;;;29.55;48.35;101220.06;144994;605;5002;-81
2021/07/10 08:07:50;;;;;;;10.70;4.07;;;;;;;29.70;47.28;101213.22;144994;644;5002;-81
2021/07/10 08:10:17;;;;;;;7.37;4.10;;;;;;;29.74;47.35;101214.81;144994;648;5002;-82
2021/07/10 08:12:46;;;;;;;9.73;4.00;;;;;;;29.80;47.87;101211.91;144994;593;5002;-82
2021/07/10 08:15:16;;;;;;;7.93;3.87;;;;;;;29.83;47.81;101209.09;144994;596;5002;-81
2021/07/10 08:17:44;;;;;;;6.07;3.50;;;;;;;29.84;47.45;101210.84;144994;583;5002;-82
2021/07/10 08:20:12;;;;;;;7.47;3.67;;;;;;;29.76;47.15;101214.75;144994;601;5002;-80
2021/07/10 08:22:39;;;;;;;7.20;3.72;;;;;;;29.96;46.41;101219.28;144994;580;5002;-82
2021/07/10 08:25:11;;;;;;;4.50;3.47;;;;;;;30.05;44.84;101209.97;144994;577;5002;-82
2021/07/10 08:27:38;;;;;;;8.88;3.60;;;;;;;30.09;45.30;101212.44;144994;649;5002;-81
2021/07/10 08:30:09;;;;;;;4.87;3.72;;;;;;;30.06;45.00;101207.22;144994;643;5002;-82
2021/07/10 08:32:36;;;;;;;5.40;3.40;;;;;;;30.33;44.85;101213.16;144994;572;5002;-81
2021/07/10 08:35:04;;;;;;;6.25;3.70;;;;;;;30.31;44.95;101223.06;144994;599;5002;-81
2021/07/10 08:37:34;;;;;;;5.78;3.95;;;;;;;30.23;45.82;101217.19;144994;569;5002;-82
2021/07/10 08:40:00;;;;;;;6.05;3.78;;;;;;;30.14;46.47;101214.91;144994;577;5002;-82
2021/07/10 08:42:26;;;;;;;4.35;3.80;;;;;;;30.05;47.71;101208.19;144994;586;5002;-81
2021/07/10 08:44:53;;;;;;;12.82;3.75;;;;;;;30.05;48.09;101208.19;144994;594;5002;-82
2021/07/10 08:47:20;;;;;;;6.62;3.70;;;;;;;29.95;47.56;101207.69;144994;627;5002;-81
2021/07/10 08:49:47;;;;;;;7.45;3.70;;;;;;;30.01;46.70;101211.91;144994;564;5002;-83
2021/07/10 08:52:15;;;;;;;6.10;3.70;;;;;;;30.16;46.91;101210.34;144994;634;5002;-80
2021/07/10 08:54:45;;;;;;;5.43;3.25;;;;;;;30.40;45.38;101211.12;144994;595;5002;-83
2021/07/10 08:57:14;;;;;;;5.85;3.28;;;;;;;30.45;45.38;101206.41;144994;665;5002;-81
2021/07/10 08:59:41;;;;;;;5.65;3.12;;;;;;;30.58;43.37;101225.47;144994;569;5002;-82
2021/07/10 09:02:08;;;;;;;4.78;3.05;;;;;;;30.43;42.50;101215.44;144994;582;5002;-81
2021/07/10 09:04:35;;;;;;;5.97;3.15;;;;;;;30.53;42.73;101214.09;144994;577;5002;-83
2021/07/10 09:07:02;;;;;;;6.97;4.25;;;;;;;30.49;42.06;101205.31;144994;624;5002;-82
2021/07/10 09:09:47;;;;;;;8.10;3.20;;;;;;;30.50;42.31;101207.06;144994;585;5002;-81
2021/07/10 09:12:27;;;;;;;5.62;3.40;;;;;;;30.47;42.39;101215.22;144994;611;5002;-83
2021/07/10 09:14:53;;;;;;;7.75;3.17;;;;;;;30.50;42.12;101208.88;144994;598;5002;-82
2021/07/10 09:17:21;;;;;;;5.32;3.30;;;;;;;30.40;41.82;101203.09;144994;577;5002;-81
2021/07/10 09:19:49;;;;;;;6.75;3.17;;;;;;;30.51;40.12;101208.81;144994;612;5002;-81
2021/07/10 09:22:33;;;;;;;7.12;2.87;;;;;;;30.61;40.23;101209.25;144993;566;4567;-82
2021/07/10 09:25:00;;;;;;;4.90;2.83;;;;;;;30.59;40.99;101207.56;144994;599;4572;-82
2021/07/10 09:27:27;;;;;;;5.68;3.15;;;;;;;30.74;40.18;101202.34;144994;594;4572;-81
2021/07/10 09:29:53;;;;;;;4.03;3.03;;;;;;;30.71;40.54;101196.28;144992;629;6002;-84
2021/07/10 09:32:22;;;;;;;5.03;2.95;;;;;;;30.60;40.60;101194.09;144992;574;6002;-83
2021/07/10 09:34:54;;;;;;;5.65;3.08;;;;;;;30.44;41.13;101198.44;144992;604;6002;-82
2021/07/10 09:37:25;;;;;;;7.47;3.28;;;;;;;30.52;41.55;101196.28;144992;610;6002;-81
2021/07/10 09:40:03;;;;;;;6.03;3.03;;;;;;;30.39;42.22;101182.59;144992;597;6002;-80
2021/07/10 09:42:38;;;;;;;3.15;2.85;;;;;;;30.45;42.02;101195.69;144992;615;6002;-81
2021/07/10 09:45:07;;;;;;;5.97;3.00;;;;;;;30.40;42.10;101189.69;144992;564;6002;-81
2021/07/10 09:47:36;;;;;;;7.05;3.12;;;;;;;30.37;41.99;101187.13;144992;603;6002;-81
2021/07/10 09:50:08;;;;;;;6.20;2.60;;;;;;;30.36;41.84;101190.72;144992;569;6002;-82
2021/07/10 09:52:38;;;;;;;8.20;3.15;;;;;;;30.43;41.84;101183.31;144992;627;6002;-80
2021/07/10 09:55:11;;;;;;;6.37;2.85;;;;;;;30.32;41.99;101183.75;144992;623;6002;-81
2021/07/10 09:57:42;;;;;;;5.20;2.83;;;;;;;30.41;42.52;101178.00;144992;582;6002;-83
2021/07/10 10:00:18;;;;;;;4.80;2.40;;;;;;;30.49;41.76;101181.19;144992;597;6002;-82
2021/07/10 10:02:48;;;;;;;4.28;3.10;;;;;;;30.43;42.07;101173.44;144992;573;6002;-81
2021/07/10 10:05:18;;;;;;;4.72;2.90;;;;;;;30.38;42.51;101179.03;144992;581;6002;-80
2021/07/10 10:07:55;;;;;;;5.00;2.70;;;;;;;30.31;41.77;101176.69;144992;621;6002;-83
2021/07/10 10:10:27;;;;;;;6.68;2.78;;;;;;;30.32;42.17;101173.94;144992;612;6002;-81
2021/07/10 10:13:25;;;;;;;4.60;2.80;;;;;;;30.31;42.34;101174.88;144992;563;6002;-82
2021/07/10 10:15:53;;;;;;;7.70;2.83;;;;;;;30.48;42.33;101181.28;144992;595;6004;-81
2021/07/10 10:18:24;;;;;;;4.35;2.62;;;;;;;30.37;42.83;101179.94;144992;580;6004;-81
2021/07/10 10:20:53;;;;;;;3.40;2.65;;;;;;;30.42;42.71;101170.84;144992;571;6004;-82
2021/07/10 10:23:21;;;;;;;3.80;2.85;;;;;;;30.50;41.60;101163.34;144992;591;6004;-80
2021/07/10 10:25:48;;;;;;;5.55;2.87;;;;;;;30.51;41.91;101163.28;144992;574;6004;-82
2021/07/10 10:28:19;;;;;;;5.70;2.65;;;;;;;30.38;41.82;101162.97;144992;573;6004;-81
2021/07/10 10:30:51;;;;;;;9.95;2.80;;;;;;;30.53;41.45;101157.84;144992;573;6004;-82
2021/07/10 10:33:17;;;;;;;2.85;2.30;;;;;;;30.58;41.86;101163.84;144992;565;6004;-82
2021/07/10 10:35:59;;;;;;;5.30;2.40;;;;;;;30.65;42.15;101159.06;144992;653;6004;-83
2021/07/10 10:38:30;;;;;;;3.75;2.40;;;;;;;30.85;41.15;101152.75;144992;583;6004;-83
2021/07/10 10:41:03;;;;;;;3.55;2.53;;;;;;;30.74;41.70;101153.28;144992;591;6004;-81
2021/07/10 10:43:33;;;;;;;5.20;2.58;;;;;;;30.79;41.59;101151.22;144992;667;6004;-82
2021/07/10 10:46:12;;;;;;;6.72;3.17;;;;;;;31.01;41.38;101142.19;144992;691;6004;-82
2021/07/10 10:48:43;;;;;;;3.97;3.08;;;;;;;30.99;41.98;101142.25;144992;593;6004;-81
2021/07/10 10:51:35;;;;;;;6.20;3.72;;;;;;;31.00;41.72;101151.16;144992;561;6004;-81
2021/07/10 10:54:45;;;;;;;4.87;2.90;;;;;;;30.96;41.60;101152.19;144992;609;6002;-81
2021/07/10 10:57:11;;;;;;;5.93;2.78;;;;;;;31.04;41.56;101139.34;144992;616;6004;-82
2021/07/10 10:59:40;;;;;;;4.35;2.53;;;;;;;31.03;41.37;101142.97;144992;674;6004;-82
2021/07/10 11:02:42;;;;;;;5.43;3.10;;;;;;;30.97;40.94;101138.75;144992;589;6004;-82
2021/07/10 11:05:09;;;;;;;3.65;2.78;;;;;;;31.00;41.78;101138.63;144992;569;6002;-80
2021/07/10 11:07:36;;;;;;;3.20;2.50;;;;;;;30.86;42.51;101146.44;144992;584;6003;-81
2021/07/10 11:10:16;;;;;;;6.00;2.90;;;;;;;30.81;42.67;101127.91;144992;679;6002;-82
2021/07/10 11:12:57;;;;;;;9.27;3.33;;;;;;;30.77;43.40;101125.44;144992;612;6002;-82
2021/07/10 11:15:43;;;;;;;7.05;3.12;;;;;;;30.82;43.07;101124.28;144992;583;6003;-80
2021/07/10 11:18:26;;;;;;;3.92;2.85;;;;;;;30.86;42.52;101120.53;144992;598;6004;-81
2021/07/10 11:20:53;;;;;;;3.12;2.40;;;;;;;30.79;43.27;101108.34;144992;592;6004;-80
2021/07/10 11:23:34;;;;;;;4.72;3.00;;;;;;;30.78;44.19;101111.09;144992;584;6004;-83
2021/07/10 11:26:20;;;;;;;4.32;2.70;;;;;;;30.82;44.17;101102.84;144992;587;6004;-82
2021/07/10 11:28:52;;;;;;;3.83;2.70;;;;;;;30.85;43.43;101101.84;144992;563;6002;-82
2021/07/10 11:31:39;;;;;;;4.57;2.87;;;;;;;30.84;44.17;101094.72;144992;573;6002;-83
2021/07/10 11:34:08;;;;;;;4.87;3.05;;;;;;;30.85;42.73;101107.19;144992;642;6004;-81
2021/07/10 11:36:58;;;;;;;4.20;2.92;;;;;;;30.79;43.19;101097.63;144992;600;6004;-81
2021/07/10 11:39:48;;;;;;;4.47;2.90;;;;;;;30.84;42.97;101100.09;144992;626;6002;-80
2021/07/10 11:42:43;;;;;;;5.22;3.00;;;;;;;30.77;42.82;101085.25;144992;571;6004;-83